Aeroporto :
LOGIN :

Iscrizione | Disclaimer

   EN    FR    IT 

 










Sommario :    VFR   VFR Marginale   IFR   IFR Intensivo   IFR Molto Intensivo
Visibilità : 
Base nubi : 
>= 8 km
>= 3000ft
5 / 8 km
1000 / 3000 ft
1500m / 5 km
500 / 1000 ft
800 / 1500m
200 / 500 ft
< 800m
< 200 ft
Simboli :   Temporali  Nebbia  Neve Forte  Precipitazioni Forti  Vento > 20 kt
SIGMETs :   Varie  Temporali  Ghiacco  Turbolenza  Onda orograficha  Ceneri Vulcaniche







- Altitudine del aeroporto : 194 ft


EBCV - Chièvres

ULTIMO METAR :
  • 101925Z AUTO 27004KT 9999 FEW045/// 03/02 Q1027 BLU

METARs OBSOLETI :
  • 101855Z AUTO 27004KT 9999 NCD 04/03 Q1026 BLU
  • 101825Z AUTO 29006KT 9999 NCD 04/03 Q1026 BLU
  • 101755Z AUTO 28005KT 9999 NCD 05/03 Q1026 BLU
  • 101725Z AUTO 29004KT 9999 SCT160/// 05/03 Q1026 BLU
  • 101655Z AUTO 30005KT 9999 FEW027/// BKN160/// 05/04 Q1026 BLU
  • 101625Z AUTO 30005KT 9999 BKN020/// BKN160/// 07/04 Q1026 WHT

TAF TAF EBCV
Valido dal 10 a 19 ore il 11 a 07 ore UTC


101541Z 1019/1107 28006KT 9999 FEW020 SCT025
TEMPO 1019/1107 SCT015 BKN020 BY EBWM
Nessun NOTAM noto per questo aeroporto.



MetMap, La meteo Aeronautica in un colpo d'occhio ! - Copyright ORBIFLY Dicembre 2007 - Disclaimer

ORBIFLY MET'MAP TEAM :

Programmazione e sviluppo : Alexandra Zaïnal
Concezione e sviluppo : Baudouin d'Aumeries
Co-Programmazione e sviluppo : Marc-Olivier Méhu
Supporto tecnico e logistico : Manuel Goepfert
Aiuto per la traduzione : Arnaldo La Scala

Contatto : metmap@orbifly.com




FONTI E CREDITI :

   NOAA